Time;durP1;ratioP1;P1;durP2;ratioP2;P2;SDS_P1;SDS_P2;PMS_P1;PMS_P2;Temp;Humidity;BMP_temperature;BMP_pressure;BME280_temperature;BME280_humidity;BME280_pressure;Samples;Min_cycle;Max_cycle;Signal;HPM_P1;HPM_P2
2021/04/07 00:00:41;;;;;;;;;;;;;;;6.73;61.93;98800.84;1802801;79;20195;-63
2021/04/07 00:03:10;;;;;;;;;;;;;;;6.70;62.34;98797.31;1805683;79;21195;-63
2021/04/07 00:05:41;;;;;;;;;;;;;;;6.66;62.57;98797.48;1797441;78;20133;-66
2021/04/07 00:08:08;;;;;;;;;;;;;;;6.62;62.91;98797.64;1800609;79;20229;-66
2021/04/07 00:10:39;;;;;;;;;;;;;;;6.58;63.21;98793.31;1800754;79;20135;-65
2021/04/07 00:13:08;;;;;;;;;;;;;;;6.57;63.47;98794.34;1799389;79;20123;-65
2021/04/07 00:15:36;;;;;;;;;;;;;;;6.56;63.69;98798.04;1797058;79;21302;-67
2021/04/07 00:18:04;;;;;;;;;;;;;;;6.56;63.96;98791.38;1802104;79;20148;-66
2021/04/07 00:20:32;;;;;;;;;;;;;;;6.57;64.19;98794.88;1804469;79;20224;-66
2021/04/07 00:23:01;;;;;;;;;;;;;;;6.54;64.32;98795.34;1804181;79;20206;-66
2021/04/07 00:25:28;;;;;;;;;;;;;;;6.51;64.78;98791.78;1796323;79;20228;-67
2021/04/07 00:27:58;;;;;;;;;;;;;;;6.45;64.96;98790.34;1798009;79;21253;-64
2021/04/07 00:30:28;;;;;;;;;;;;;;;6.45;65.22;98791.67;1801029;79;20178;-64
2021/04/07 00:32:56;;;;;;;;;;;;;;;6.50;65.51;98794.97;1802055;79;20372;-64
2021/04/07 00:35:24;;;;;;;;;;;;;;;6.51;65.56;98799.77;1801019;79;20149;-65
2021/04/07 00:37:52;;;;;;;;;;;;;;;6.50;65.78;98790.98;1801101;79;20125;-65
2021/04/07 00:40:20;;;;;;;;;;;;;;;6.48;65.81;98783.75;1800992;79;21202;-64
2021/04/07 00:42:49;;;;;;;;;;;;;;;6.49;65.87;98782.19;1796933;79;20525;-65
2021/04/07 00:45:17;;;;;;;;;;;;;;;6.51;65.75;98796.60;1794464;79;20135;-65
2021/04/07 00:47:50;;;;;;;;;;;;;;;6.53;65.79;98793.70;1801147;79;20188;-65
2021/04/07 00:50:19;;;;;;;;;;;;;;;6.53;65.81;98792.38;1800415;78;20215;-65
2021/04/07 00:52:47;;;;;;;;;;;;;;;6.47;65.94;98789.58;1790501;79;21200;-65
2021/04/07 00:55:18;;;;;;;;;;;;;;;6.43;66.05;98786.27;1789994;79;20197;-66
2021/04/07 00:57:46;;;;;;;;;;;;;;;6.42;66.11;98793.46;1780730;79;20152;-63
2021/04/07 01:00:15;;;;;;;;;;;;;;;6.45;66.10;98794.33;1780176;80;20211;-65
2021/04/07 01:02:42;;;;;;;;;;;;;;;6.51;65.89;98784.62;1780459;80;20227;-64
2021/04/07 01:05:11;;;;;;;;;;;;;;;6.50;65.73;98784.32;1780222;80;21358;-65
2021/04/07 01:07:39;;;;;;;;;;;;;;;6.46;65.74;98779.16;1779823;80;20249;-65
2021/04/07 01:10:08;;;;;;;;;;;;;;;6.43;65.74;98771.14;1780643;80;20205;-64
2021/04/07 01:12:37;;;;;;;;;;;;;;;6.40;65.87;98771.56;1779231;80;20546;-66
2021/04/07 01:15:08;;;;;;;;;;;;;;;6.38;65.93;98767.00;1778418;80;20215;-64
2021/04/07 01:17:36;;;;;;;;;;;;;;;6.41;66.34;98768.41;1778856;80;21263;-64
2021/04/07 01:20:06;;;;;;;;;;;;;;;6.44;66.47;98766.61;1659175;85;20201;-64
2021/04/07 01:22:35;;;;;;;;;;;;;;;6.40;66.64;98768.11;1666209;85;20610;-63
2021/04/07 01:25:08;;;;;;;;;;;;;;;6.41;67.29;98771.06;1666653;85;20210;-64
2021/04/07 01:27:44;;;;;;;;;;;;;;;6.43;67.41;98759.16;1825313;77;20681;-65
2021/04/07 01:30:14;;;;;;;;;;;;;;;6.41;67.48;98762.55;1797760;79;20162;-65
2021/04/07 01:32:42;;;;;;;;;;;;;;;6.49;67.55;98762.72;1800602;79;21202;-64
2021/04/07 01:35:11;;;;;;;;;;;;;;;6.52;67.41;98755.60;1801177;79;20123;-65
2021/04/07 01:37:40;;;;;;;;;;;;;;;6.53;67.35;98758.56;1798446;79;20115;-66
2021/04/07 01:40:13;;;;;;;;;;;;;;;6.52;67.35;98752.14;1801638;79;20151;-65
2021/04/07 01:42:42;;;;;;;;;;;;;;;6.44;67.44;98753.30;1802518;79;20146;-65
2021/04/07 01:45:11;;;;;;;;;;;;;;;6.40;67.60;98750.80;1798628;77;21201;-64
2021/04/07 01:47:39;;;;;;;;;;;;;;;6.35;67.73;98753.36;1711507;83;20163;-64
2021/04/07 01:50:09;;;;;;;;;;;;;;;6.39;67.77;98743.84;1708976;83;20201;-63
2021/04/07 01:52:38;;;;;;;;;;;;;;;6.47;67.66;98736.33;1696359;84;20332;-64
2021/04/07 01:55:07;;;;;;;;;;;;;;;6.56;67.44;98738.66;1696469;84;20300;-65
2021/04/07 01:57:36;;;;;;;;;;;;;;;6.59;67.22;98728.87;1696612;84;21212;-64
2021/04/07 02:00:11;;;;;;;;;;;;;;;6.57;67.19;98722.98;1696379;84;20229;-64
2021/04/07 02:02:39;;;;;;;;;;;;;;;6.51;67.24;98717.23;1696409;84;20344;-64
2021/04/07 02:05:08;;;;;;;;;;;;;;;6.45;67.46;98717.66;1696333;84;20578;-64
2021/04/07 02:07:36;;;;;;;;;;;;;;;6.39;67.71;98714.06;1696506;84;20328;-64
2021/04/07 02:10:05;;;;;;;;;;;;;;;6.35;67.89;98704.11;1696357;84;22586;-65
2021/04/07 02:12:33;;;;;;;;;;;;;;;6.31;68.12;98695.77;1717353;80;20246;-65
2021/04/07 02:15:11;;;;;;;;;;;;;;;6.26;68.37;98689.01;1770202;80;20225;-65
2021/04/07 02:17:39;;;;;;;;;;;;;;;6.20;68.59;98685.41;1773002;80;20217;-64
2021/04/07 02:20:08;;;;;;;;;;;;;;;6.16;68.84;98684.25;1768541;80;20570;-63
2021/04/07 02:22:35;;;;;;;;;;;;;;;6.19;68.98;98683.78;1763797;79;22046;-64
2021/04/07 02:25:05;;;;;;;;;;;;;;;6.27;69.04;98693.27;1732559;81;20224;-62
2021/04/07 02:27:35;;;;;;;;;;;;;;;6.30;69.00;98683.48;1755444;80;20255;-63
2021/04/07 02:30:05;;;;;;;;;;;;;;;6.31;69.00;98676.60;1751607;80;20136;-62
2021/04/07 02:32:32;;;;;;;;;;;;;;;6.37;68.96;98670.08;1752771;80;20227;-63
2021/04/07 02:35:00;;;;;;;;;;;;;;;6.42;68.96;98658.20;1752850;80;21206;-61
2021/04/07 02:37:28;;;;;;;;;;;;;;;6.42;68.93;98659.53;1679761;84;20139;-62
2021/04/07 02:39:58;;;;;;;;;;;;;;;6.44;69.01;98658.27;1698558;82;20132;-62
2021/04/07 02:42:26;;;;;;;;;;;;;;;6.45;69.00;98660.42;1701184;82;20117;-62
2021/04/07 02:44:55;;;;;;;;;;;;;;;6.48;68.92;98652.77;1700750;82;20248;-62
2021/04/07 02:47:23;;;;;;;;;;;;;;;6.55;68.84;98653.99;1700008;82;21226;-62
2021/04/07 02:49:51;;;;;;;;;;;;;;;6.62;68.69;98652.52;1695905;82;20241;-62
2021/04/07 02:52:20;;;;;;;;;;;;;;;6.70;68.52;98648.68;1701739;82;20235;-63
2021/04/07 02:54:48;;;;;;;;;;;;;;;6.71;68.31;98649.78;1695844;82;20487;-62
2021/04/07 02:57:16;;;;;;;;;;;;;;;6.72;68.28;98640.75;1699128;82;20206;-62
2021/04/07 02:59:44;;;;;;;;;;;;;;;6.77;68.19;98639.54;1696682;83;21169;-63
2021/04/07 03:02:13;;;;;;;;;;;;;;;6.82;68.08;98634.30;1698339;83;20237;-62
2021/04/07 03:04:41;;;;;;;;;;;;;;;6.88;67.82;98628.56;1703734;83;20235;-62
2021/04/07 03:07:10;;;;;;;;;;;;;;;6.90;67.62;98630.98;1699797;82;20318;-62
2021/04/07 03:09:37;;;;;;;;;;;;;;;6.89;67.51;98624.03;1697445;83;20329;-63
2021/04/07 03:12:06;;;;;;;;;;;;;;;6.86;67.45;98617.34;1698500;82;21148;-63
2021/04/07 03:14:34;;;;;;;;;;;;;;;6.88;67.41;98620.56;1697133;83;20238;-62
2021/04/07 03:17:02;;;;;;;;;;;;;;;6.89;67.32;98619.53;1667903;83;20275;-62
2021/04/07 03:19:31;;;;;;;;;;;;;;;6.91;67.29;98621.42;1694591;83;20906;-63
2021/04/07 03:21:59;;;;;;;;;;;;;;;6.94;67.18;98625.48;1698637;82;20254;-62
2021/04/07 03:24:27;;;;;;;;;;;;;;;6.95;67.08;98637.23;1697736;83;22100;-62
2021/04/07 03:26:55;;;;;;;;;;;;;;;6.95;67.00;98644.39;1698032;83;20313;-62
2021/04/07 03:29:23;;;;;;;;;;;;;;;6.95;66.98;98650.55;1700594;83;20598;-63
2021/04/07 03:31:52;;;;;;;;;;;;;;;6.97;66.90;98662.30;1699383;82;20510;-63
2021/04/07 03:34:20;;;;;;;;;;;;;;;6.98;66.79;98663.39;1702052;83;20239;-62
2021/04/07 03:36:48;;;;;;;;;;;;;;;6.99;66.60;98671.69;1702345;83;21386;-62
2021/04/07 03:39:18;;;;;;;;;;;;;;;6.97;66.61;98668.95;1702065;83;20278;-62
2021/04/07 03:41:46;;;;;;;;;;;;;;;6.96;66.61;98655.34;1707291;83;20152;-62
2021/04/07 03:44:14;;;;;;;;;;;;;;;6.95;66.70;98654.55;1703274;83;20247;-63
2021/04/07 03:46:42;;;;;;;;;;;;;;;6.98;66.71;98654.60;1691326;83;20552;-62
2021/04/07 03:49:10;;;;;;;;;;;;;;;7.01;66.73;98646.13;1703843;83;21218;-62
2021/04/07 03:51:38;;;;;;;;;;;;;;;7.06;66.71;98643.55;1701854;83;20123;-63
2021/04/07 03:54:05;;;;;;;;;;;;;;;7.10;66.65;98650.03;1703771;83;20143;-63
2021/04/07 03:56:33;;;;;;;;;;;;;;;7.14;66.59;98654.35;1699083;83;20301;-63
2021/04/07 03:59:01;;;;;;;;;;;;;;;7.17;66.54;98648.58;1701436;83;20292;-63
2021/04/07 04:01:29;;;;;;;;;;;;;;;7.18;66.59;98655.00;1704298;83;21207;-62
2021/04/07 04:03:57;;;;;;;;;;;;;;;7.21;66.56;98663.55;1701942;83;20605;-62
2021/04/07 04:06:26;;;;;;;;;;;;;;;7.26;66.62;98663.64;1700835;83;20163;-63
2021/04/07 04:08:54;;;;;;;;;;;;;;;7.32;66.50;98664.84;1699959;83;20197;-63
2021/04/07 04:11:22;;;;;;;;;;;;;;;7.39;66.37;98661.22;1704701;82;20513;-62
2021/04/07 04:13:51;;;;;;;;;;;;;;;7.44;66.23;98665.33;1704648;83;23070;-63
2021/04/07 04:16:19;;;;;;;;;;;;;;;7.48;66.10;98669.11;1699752;83;20222;-63
2021/04/07 04:18:49;;;;;;;;;;;;;;;7.52;65.95;98671.08;1700690;83;20570;-62
2021/04/07 04:21:17;;;;;;;;;;;;;;;7.54;65.85;98669.51;1701067;83;20333;-62
2021/04/07 04:23:45;;;;;;;;;;;;;;;7.55;65.84;98673.77;1706616;83;20231;-62
2021/04/07 04:26:13;;;;;;;;;;;;;;;7.54;65.85;98667.64;1703195;83;21231;-63
2021/04/07 04:28:41;;;;;;;;;;;;;;;7.56;65.84;98653.27;1693622;82;20250;-62
2021/04/07 04:31:10;;;;;;;;;;;;;;;7.55;65.90;98652.44;1695582;82;20496;-64
2021/04/07 04:33:39;;;;;;;;;;;;;;;7.59;65.96;98654.12;1699551;82;20173;-64
2021/04/07 04:36:07;;;;;;;;;;;;;;;7.52;66.01;98655.59;1668240;84;20290;-63
2021/04/07 04:38:35;;;;;;;;;;;;;;;7.47;66.33;98657.64;1699874;82;21204;-63
2021/04/07 04:41:04;;;;;;;;;;;;;;;7.42;66.48;98655.41;1701696;82;20133;-61
2021/04/07 04:43:32;;;;;;;;;;;;;;;7.39;66.80;98654.05;1664448;82;20231;-62
2021/04/07 04:46:00;;;;;;;;;;;;;;;7.31;66.91;98664.55;1702298;82;20116;-64
2021/04/07 04:48:27;;;;;;;;;;;;;;;7.30;67.05;98665.62;1669080;83;20269;-64
2021/04/07 04:54:26;;;;;;;;;;;;;;;7.07;67.55;98671.03;1696314;82;20160;-62
2021/04/07 05:00:24;;;;;;;;;;;;;;;7.01;67.95;98670.11;1697939;82;20255;-62
2021/04/07 05:06:22;;;;;;;;;;;;;;;6.91;68.23;98659.25;1696227;82;20169;-63
2021/04/07 05:12:21;;;;;;;;;;;;;;;7.00;68.17;98661.29;1696122;82;20164;-63
2021/04/07 05:18:21;;;;;;;;;;;;;;;7.13;67.87;98661.55;1695015;82;20164;-62
2021/04/07 05:24:20;;;;;;;;;;;;;;;7.27;67.22;98647.41;1696227;82;20165;-62
2021/04/07 05:30:09;;;;;;;;;;;;;;;7.40;66.87;98656.18;1693236;82;20517;-65
2021/04/07 05:36:08;;;;;;;;;;;;;;;7.56;66.60;98662.06;1683180;82;20172;-62
2021/04/07 05:41:55;;;;;;;;;;;;;;;7.37;66.65;98662.79;1683765;83;20228;-63
2021/04/07 05:47:54;;;;;;;;;;;;;;;7.30;67.20;98657.62;1680406;83;20138;-63
2021/04/07 05:50:22;;;;;;;;;;;;;;;7.38;67.03;98660.42;1661696;84;21232;-62
2021/04/07 05:52:52;;;;;;;;;;;;;;;7.45;66.92;98665.59;1685513;83;20249;-62
2021/04/07 05:55:20;;;;;;;;;;;;;;;7.53;66.73;98667.88;1671595;83;20231;-66
2021/04/07 05:58:01;;;;;;;;;;;;;;;7.64;66.36;98670.19;1654873;85;20215;-62
2021/04/07 06:00:28;;;;;;;;;;;;;;;7.76;66.10;98668.29;1676867;83;20260;-64
2021/04/07 06:02:57;;;;;;;;;;;;;;;7.84;65.79;98674.55;1730192;80;21634;-63
2021/04/07 06:05:27;;;;;;;;;;;;;;;7.85;65.51;98671.38;1726972;81;20226;-62
2021/04/07 06:07:58;;;;;;;;;;;;;;;7.88;65.56;98671.69;1728883;81;20791;-62
2021/04/07 06:10:26;;;;;;;;;;;;;;;7.97;65.47;98669.96;1728962;81;20299;-63
2021/04/07 06:12:54;;;;;;;;;;;;;;;8.04;65.21;98675.41;1725698;81;20230;-63
2021/04/07 06:15:22;;;;;;;;;;;;;;;8.10;64.96;98669.64;1730309;81;21326;-62
2021/04/07 06:17:59;;;;;;;;;;;;;;;8.18;64.76;98667.08;1728823;81;20132;-63
2021/04/07 06:20:26;;;;;;;;;;;;;;;8.26;64.67;98664.02;1727501;80;20317;-62
2021/04/07 06:22:54;;;;;;;;;;;;;;;8.36;64.46;98659.33;1728350;81;20505;-63
2021/04/07 06:25:22;;;;;;;;;;;;;;;8.45;64.12;98655.75;1732257;80;20217;-62
2021/04/07 06:27:50;;;;;;;;;;;;;;;8.54;63.92;98663.10;1730753;80;20495;-62
2021/04/07 06:30:18;;;;;;;;;;;;;;;8.60;63.60;98665.32;1738603;80;20291;-62
2021/04/07 06:32:46;;;;;;;;;;;;;;;8.57;63.45;98665.81;1768544;80;20238;-63
2021/04/07 06:35:14;;;;;;;;;;;;;;;8.63;63.58;98662.66;1721710;79;21264;-61
2021/04/07 06:37:42;;;;;;;;;;;;;;;8.78;63.44;98662.08;1762142;79;20249;-63
2021/04/07 06:40:10;;;;;;;;;;;;;;;8.99;63.42;98655.91;1735928;80;22936;-62
2021/04/07 06:42:38;;;;;;;;;;;;;;;9.29;62.98;98647.44;1759118;80;20535;-63
2021/04/07 06:45:07;;;;;;;;;;;;;;;9.58;61.79;98644.50;1760521;80;20163;-62
2021/04/07 06:47:34;;;;;;;;;;;;;;;9.89;61.23;98642.63;1761651;79;20221;-62
2021/04/07 06:50:03;;;;;;;;;;;;;;;10.15;59.99;98645.77;1758900;80;20306;-62
2021/04/07 06:56:01;;;;;;;;;;;;;;;10.72;58.58;98641.30;1759009;79;20202;-63
2021/04/07 07:02:01;;;;;;;;;;;;;;;12.23;55.60;98642.13;1764052;80;20560;-62
2021/04/07 07:08:01;;;;;;;;;;;;;;;14.13;49.96;98639.86;1760672;79;20140;-63
2021/04/07 07:14:00;;;;;;;;;;;;;;;13.92;48.59;98641.11;1756989;80;20263;-63
2021/04/07 07:19:58;;;;;;;;;;;;;;;13.31;49.46;98645.26;1758717;80;20150;-63
2021/04/07 07:26:04;;;;;;;;;;;;;;;12.94;50.51;98643.83;1762753;79;20247;-63
2021/04/07 07:35:22;;;;;;;;;;;;;;;12.48;51.06;98639.14;1678192;84;20324;-61
2021/04/07 07:41:08;;;;;;;;;;;;;;;13.22;51.05;98633.48;1680521;84;20588;-63
2021/04/07 07:47:19;;;;;;;;;;;;;;;13.72;49.11;98631.30;1713535;82;20288;-63
2021/04/07 07:52:42;;;;;;;;;;;;;;;13.65;48.47;98637.01;1740413;81;21383;-64
2021/04/07 07:55:15;;;;;;;;;;;;;;;13.31;49.09;98639.88;1734077;82;20520;-63
2021/04/07 07:57:55;;;;;;;;;;;;;;;13.10;49.93;98645.92;1730700;82;20487;-63
2021/04/07 08:00:24;;;;;;;;;;;;;;;13.03;50.38;98640.03;1733934;82;20557;-63
2021/04/07 08:02:53;;;;;;;;;;;;;;;13.03;50.51;98637.34;1735643;82;20288;-62
2021/04/07 08:05:23;;;;;;;;;;;;;;;13.03;50.29;98635.99;1734816;82;21211;-63
2021/04/07 08:07:52;;;;;;;;;;;;;;;13.03;50.86;98636.52;1734653;80;20191;-64
2021/04/07 08:10:22;;;;;;;;;;;;;;;13.00;50.48;98629.00;1732493;81;20237;-63
2021/04/07 08:12:49;;;;;;;;;;;;;;;13.02;50.92;98624.96;1735043;82;20302;-62
2021/04/07 08:15:17;;;;;;;;;;;;;;;13.20;51.02;98621.37;1741911;81;20253;-63
2021/04/07 08:17:45;;;;;;;;;;;;;;;13.32;50.20;98624.00;1743055;82;21199;-62
2021/04/07 08:20:14;;;;;;;;;;;;;;;13.38;50.36;98623.44;1704892;82;20237;-63
2021/04/07 08:22:42;;;;;;;;;;;;;;;13.37;49.33;98621.84;1734581;82;20247;-63
2021/04/07 08:25:11;;;;;;;;;;;;;;;13.25;49.69;98619.47;1649643;86;20528;-63
2021/04/07 08:27:39;;;;;;;;;;;;;;;13.13;49.80;98626.53;1651388;86;20580;-64
2021/04/07 08:30:15;;;;;;;;;;;;;;;13.01;49.70;98618.52;1814292;77;20269;-62
2021/04/07 08:32:43;;;;;;;;;;;;;;;12.79;50.04;98616.98;1829177;77;20144;-64
2021/04/07 08:35:12;;;;;;;;;;;;;;;12.72;50.45;98615.95;1831459;77;20537;-64
2021/04/07 08:37:39;;;;;;;;;;;;;;;12.59;50.62;98616.54;1832625;77;20107;-64
2021/04/07 08:40:10;;;;;;;;;;;;;;;12.49;51.07;98623.29;1828741;77;20134;-63
2021/04/07 08:42:39;;;;;;;;;;;;;;;12.43;51.05;98620.59;1832569;77;20251;-62
2021/04/07 08:45:09;;;;;;;;;;;;;;;12.35;51.28;98621.69;1830638;77;20267;-63
2021/04/07 08:47:44;;;;;;;;;;;;;;;12.24;51.38;98615.55;1832742;77;21203;-63
2021/04/07 08:50:13;;;;;;;;;;;;;;;12.16;51.16;98623.63;1832405;77;20121;-63
2021/04/07 08:56:13;;;;;;;;;;;;;;;12.02;51.93;98619.88;1797879;79;20329;-65
2021/04/07 09:02:11;;;;;;;;;;;;;;;11.80;51.75;98607.48;1793198;79;20170;-64
2021/04/07 09:08:11;;;;;;;;;;;;;;;11.13;53.06;98608.77;1800097;79;20172;-65
2021/04/07 09:14:12;;;;;;;;;;;;;;;10.75;54.76;98604.08;1797906;79;20149;-63
2021/04/07 09:20:12;;;;;;;;;;;;;;;10.82;55.00;98588.56;1799541;79;20145;-62
2021/04/07 09:26:13;;;;;;;;;;;;;;;10.89;55.07;98581.59;1793916;79;20318;-62
2021/04/07 09:35:26;;;;;;;;;;;;;;;10.68;55.47;98564.66;1797411;79;20137;-60
2021/04/07 09:41:26;;;;;;;;;;;;;;;10.46;56.54;98573.66;1797132;79;20524;-63
2021/04/07 09:47:29;;;;;;;;;;;;;;;10.49;56.78;98575.02;1795181;79;20167;-62
2021/04/07 09:50:15;;;;;;;;;;;;;;;10.51;56.98;98574.22;1797681;79;20286;-61
2021/04/07 09:52:43;;;;;;;;;;;;;;;10.48;56.88;98568.05;1786220;79;20262;-62
2021/04/07 09:55:20;;;;;;;;;;;;;;;10.39;57.05;98570.95;1797229;79;20180;-61
2021/04/07 09:58:01;;;;;;;;;;;;;;;10.32;57.33;98575.16;1793288;79;20619;-63
2021/04/07 10:00:31;;;;;;;;;;;;;;;10.28;57.50;98571.41;1796712;79;21365;-61
2021/04/07 10:03:02;;;;;;;;;;;;;;;10.16;57.77;98569.73;1793736;79;20133;-62
2021/04/07 10:05:30;;;;;;;;;;;;;;;10.12;58.11;98573.19;1798307;79;20193;-62
2021/04/07 10:08:17;;;;;;;;;;;;;;;10.04;58.30;98568.31;1794881;79;20235;-63
2021/04/07 10:10:46;;;;;;;;;;;;;;;10.03;58.61;98574.20;1795178;79;20235;-62
2021/04/07 10:13:13;;;;;;;;;;;;;;;10.05;58.66;98569.94;1797490;79;21207;-63
2021/04/07 10:15:43;;;;;;;;;;;;;;;10.03;58.79;98563.50;1799280;79;20128;-62
2021/04/07 10:18:11;;;;;;;;;;;;;;;10.01;58.96;98564.27;1791848;79;20145;-62
2021/04/07 10:20:39;;;;;;;;;;;;;;;9.96;59.09;98574.42;1795433;79;20139;-64
2021/04/07 10:23:09;;;;;;;;;;;;;;;9.88;59.42;98572.24;1794860;79;20312;-63
2021/04/07 10:25:37;;;;;;;;;;;;;;;9.84;59.74;98571.67;1787145;79;22736;-62
2021/04/07 10:28:05;;;;;;;;;;;;;;;9.86;59.82;98575.69;1792376;79;20269;-62
2021/04/07 10:30:43;;;;;;;;;;;;;;;9.95;59.74;98576.02;1798990;79;20338;-63
2021/04/07 10:33:11;;;;;;;;;;;;;;;10.07;59.51;98583.86;1791756;79;20235;-61
2021/04/07 10:35:40;;;;;;;;;;;;;;;10.01;59.50;98581.67;1792018;79;20220;-62
2021/04/07 10:38:10;;;;;;;;;;;;;;;9.93;59.81;98580.30;1786764;79;21203;-62
2021/04/07 10:40:40;;;;;;;;;;;;;;;9.92;59.85;98589.41;1796808;79;20161;-62
2021/04/07 10:43:18;;;;;;;;;;;;;;;9.95;59.90;98587.55;1794435;79;20278;-61
2021/04/07 10:46:03;;;;;;;;;;;;;;;10.02;59.99;98586.52;1788032;79;20144;-62
2021/04/07 10:48:37;;;;;;;;;;;;;;;10.10;59.78;98599.41;1790287;79;20129;-62
2021/04/07 10:54:37;;;;;;;;;;;;;;;10.15;59.89;98610.16;1787471;79;20509;-62
2021/04/07 11:00:37;;;;;;;;;;;;;;;10.14;59.90;98612.05;1787393;79;20525;-62
2021/04/07 11:06:36;;;;;;;;;;;;;;;10.01;60.11;98616.48;1788621;79;20180;-62
2021/04/07 11:12:35;;;;;;;;;;;;;;;9.68;60.60;98609.00;1782920;79;20144;-62
2021/04/07 11:30:28;;;;;;;14.18;8.28;;;;;;;9.82;59.40;98613.41;1787024;79;22033;-62
2021/04/07 11:38:09;;;;;;;13.55;7.08;;;;;;;9.75;58.51;98610.94;1790903;79;21341;-63
2021/04/07 11:43:28;;;;;;;10.85;5.85;;;;;;;9.74;58.14;98600.50;1789226;79;21005;-62
2021/04/07 11:45:55;;;;;;;10.08;5.78;;;;;;;9.70;58.07;98604.23;1792173;79;21001;-62
2021/04/07 11:48:25;;;;;;;11.95;5.53;;;;;;;9.63;57.97;98604.97;1785391;79;20994;-62
2021/04/07 11:50:53;;;;;;;7.90;4.97;;;;;;;9.54;58.18;98605.95;1791770;79;21586;-63
2021/04/07 11:53:21;;;;;;;7.92;4.80;;;;;;;9.46;58.02;98601.06;1790558;79;21142;-63
2021/04/07 11:55:48;;;;;;;9.75;4.28;;;;;;;9.28;58.16;98602.23;1792304;78;21076;-62
2021/04/07 11:58:17;;;;;;;5.62;3.58;;;;;;;9.07;58.57;98598.55;1789987;79;21165;-63
2021/04/07 12:00:44;;;;;;;5.97;4.08;;;;;;;8.98;58.87;98594.69;1795229;79;21041;-65
2021/04/07 12:03:12;;;;;;;4.37;2.90;;;;;;;8.97;59.05;98585.08;1789247;79;21057;-62
2021/04/07 12:05:40;;;;;;;5.40;3.17;;;;;;;8.94;58.96;98591.72;1790292;79;21355;-63
2021/04/07 12:08:08;;;;;;;5.77;3.33;;;;;;;8.91;59.06;98598.37;1792451;79;20989;-61
2021/04/07 12:10:36;;;;;;;7.93;3.70;;;;;;;8.91;59.16;98593.02;1788392;79;21172;-62
2021/04/07 12:13:06;;;;;;;7.17;3.15;;;;;;;8.94;59.21;98593.06;1790140;79;21361;-62
2021/04/07 12:15:35;;;;;;;5.95;2.92;;;;;;;8.93;59.24;98594.91;1792586;77;20998;-62
2021/04/07 12:18:03;;;;;;;5.60;2.85;;;;;;;8.86;58.91;98594.31;1791970;77;21184;-62
2021/04/07 12:20:31;;;;;;;7.47;3.43;;;;;;;8.74;59.11;98604.31;1771688;79;21219;-62
2021/04/07 12:23:00;;;;;;;5.17;3.20;;;;;;;8.69;59.31;98605.06;1777606;80;21013;-62
2021/04/07 12:25:29;;;;;;;5.53;3.33;;;;;;;8.66;59.35;98608.23;1777025;80;21136;-62
2021/04/07 12:27:57;;;;;;;13.37;3.27;;;;;;;8.65;59.46;98609.27;1778327;79;21025;-62
2021/04/07 12:30:25;;;;;;;6.08;3.55;;;;;;;8.64;59.55;98619.67;1772999;80;21294;-63
2021/04/07 12:32:53;;;;;;;6.90;3.25;;;;;;;8.61;59.57;98619.38;1777910;80;21025;-62
2021/04/07 12:35:55;;;;;;;5.15;2.87;;;;;;;8.58;59.69;98630.02;1780991;80;21060;-62
2021/04/07 12:38:25;;;;;;;9.63;4.05;;;;;;;8.53;59.81;98637.98;1779337;80;21203;-62
2021/04/07 12:40:56;;;;;;;6.22;3.42;;;;;;;8.30;60.12;98637.08;1781998;80;21199;-62
2021/04/07 12:43:23;;;;;;;7.83;3.65;;;;;;;8.10;60.79;98641.61;1783737;80;21468;-63
2021/04/07 12:45:51;;;;;;;;;;;;;;;7.99;61.29;98642.50;1786139;80;21017;-63
2021/04/07 12:48:19;;;;;;;7.40;3.25;;;;;;;7.93;61.68;98638.14;1780163;80;20189;-61
2021/04/07 12:50:49;;;;;;;5.62;2.90;;;;;;;7.83;61.99;98641.44;1781222;80;21553;-61
2021/04/07 12:53:17;;;;;;;4.47;3.07;;;;;;;7.70;62.57;98647.92;1783699;79;21108;-62
2021/04/07 12:55:44;;;;;;;5.03;2.70;;;;;;;7.64;62.95;98639.02;1783238;80;21366;-62
2021/04/07 12:58:12;;;;;;;4.62;2.67;;;;;;;7.66;63.02;98632.91;1783331;80;21021;-62
2021/04/07 13:00:40;;;;;;;6.17;2.30;;;;;;;7.68;62.80;98640.66;1782317;79;21140;-63
2021/04/07 13:03:08;;;;;;;4.42;2.15;;;;;;;7.63;62.61;98644.06;1783350;80;21021;-61
2021/04/07 13:05:36;;;;;;;5.60;2.02;;;;;;;7.59;62.83;98650.92;1783536;80;21112;-62
2021/04/07 13:08:05;;;;;;;2.85;1.80;;;;;;;7.60;63.08;98660.55;1783483;80;21382;-61
2021/04/07 13:10:38;;;;;;;2.60;1.72;;;;;;;7.59;63.01;98682.13;1777801;80;21140;-62
2021/04/07 13:13:03;;;;;;;2.22;1.45;;;;;;;7.52;62.62;98673.75;1781885;80;21131;-63
2021/04/07 13:15:30;;;;;;;2.12;1.50;;;;;;;7.37;62.28;98682.25;1779275;80;21168;-62
2021/04/07 13:18:00;;;;;;;1.42;1.30;;;;;;;7.27;61.96;98683.92;1778611;80;21625;-62
2021/04/07 13:20:29;;;;;;;2.00;1.30;;;;;;;7.15;62.05;98706.62;1776989;78;21193;-62
2021/04/07 13:22:58;;;;;;;1.30;1.20;;;;;;;7.08;61.95;98710.77;1770390;78;21183;-63
2021/04/07 13:25:26;;;;;;;;;;;;;;;6.92;62.00;98718.95;1784729;78;21593;-63
2021/04/07 13:27:54;;;;;;;4.12;1.20;;;;;;;6.75;62.23;98731.36;1781735;80;20250;-62
2021/04/07 13:30:23;;;;;;;1.10;1.00;;;;;;;6.58;62.60;98727.25;1782776;79;21219;-62
2021/04/07 13:33:12;;;;;;;1.75;1.20;;;;;;;6.42;62.90;98733.56;1781689;80;21410;-62
2021/04/07 13:35:41;;;;;;;1.27;1.07;;;;;;;6.28;63.36;98736.95;1781187;79;21139;-64
2021/04/07 13:43:20;;;;;;;2.20;1.47;;;;;;;5.99;63.74;98743.15;1782389;80;21192;-63
2021/04/07 13:45:48;;;;;;;3.52;1.50;;;;;;;5.88;63.64;98747.38;1783325;80;21361;-63
2021/04/07 13:48:22;;;;;;;;;;;;;;;5.73;63.80;98748.59;1785507;80;21195;-65
2021/04/07 13:50:48;;;;;;;8.93;3.47;;;;;;;5.60;64.49;98758.88;1781424;80;20602;-64
2021/04/07 13:53:17;;;;;;;3.47;2.12;;;;;;;5.58;64.49;98776.09;1778331;80;21144;-63
2021/04/07 13:55:49;;;;;;;5.53;2.83;;;;;;;5.55;64.48;98781.36;1783064;80;21183;-66
2021/04/07 13:58:17;;;;;;;4.37;2.83;;;;;;;5.55;64.33;98787.17;1780042;80;21192;-65
2021/04/07 14:00:46;;;;;;;5.12;2.92;;;;;;;5.44;64.24;98791.41;1781292;80;21161;-65
2021/04/07 14:03:15;;;;;;;4.30;2.92;;;;;;;5.34;64.26;98793.24;1783048;80;21053;-65
2021/04/07 14:05:43;;;;;;;3.92;3.08;;;;;;;5.21;64.41;98799.54;1781557;78;21207;-66
2021/04/07 14:08:13;;;;;;;4.28;2.95;;;;;;;5.14;64.62;98796.64;1710423;81;21187;-65
2021/04/07 14:10:45;;;;;;;3.47;2.67;;;;;;;5.13;64.72;98799.82;1737705;81;21388;-67
2021/04/07 14:13:31;;;;;;;6.65;3.37;;;;;;;5.20;64.75;98817.83;1817378;78;22335;-66
2021/04/07 14:15:59;;;;;;;6.45;3.47;;;;;;;5.15;64.70;98826.97;1791501;79;21157;-64
2021/04/07 14:18:31;;;;;;;6.62;3.47;;;;;;;5.13;64.56;98825.06;1782485;79;21316;-66
2021/04/07 14:21:05;;;;;;;4.60;3.22;;;;;;;5.00;64.39;98818.02;1743198;81;21041;-69
2021/04/07 14:23:45;;;;;;;;;;;;;;;4.82;64.56;98810.05;1745874;80;21077;-69
2021/04/07 14:26:15;;;;;;;4.25;2.90;;;;;;;4.73;64.95;98814.81;1727322;81;20167;-70
2021/04/07 14:28:46;;;;;;;5.37;3.72;;;;;;;4.77;65.03;98824.47;1740583;81;20954;-70
2021/04/07 14:31:16;;;;;;;5.22;3.50;;;;;;;4.78;65.15;98820.80;1736561;81;20971;-69
2021/04/07 14:33:44;;;;;;;5.83;4.53;;;;;;;4.78;65.22;98818.14;1741873;81;21507;-70
2021/04/07 14:36:14;;;;;;;7.35;4.50;;;;;;;4.86;65.32;98821.86;1741534;81;20942;-69
2021/04/07 14:38:42;;;;;;;7.40;4.78;;;;;;;4.93;65.14;98823.11;1739485;81;21151;-68
2021/04/07 14:41:12;;;;;;;7.12;4.65;;;;;;;4.94;65.13;98826.08;1744354;81;21081;-69
2021/04/07 14:43:40;;;;;;;5.55;4.28;;;;;;;4.95;65.26;98821.03;1616184;88;21457;-69
2021/04/07 14:46:11;;;;;;;5.72;4.40;;;;;;;4.98;65.18;98824.08;1614053;88;21120;-66
2021/04/07 14:48:40;;;;;;;5.55;4.62;;;;;;;4.99;65.25;98826.22;1619129;87;21700;-68
2021/04/07 14:51:21;;;;;;;6.33;4.60;;;;;;;5.02;65.58;98823.95;1617072;88;21185;-68
2021/04/07 14:53:41;;;;;;;5.50;4.17;;;;;;;5.07;65.30;98828.07;1615031;88;21213;-66
2021/04/07 14:56:08;;;;;;;5.22;3.83;;;;;;;5.05;65.55;98825.33;1616836;88;21422;-67
2021/04/07 14:58:36;;;;;;;5.40;4.55;;;;;;;5.09;65.78;98833.16;1616357;88;21230;-67
2021/04/07 15:01:04;;;;;;;5.80;4.97;;;;;;;5.12;65.69;98838.03;1641745;81;20907;-66
2021/04/07 15:03:32;;;;;;;5.00;4.47;;;;;;;5.12;65.84;98842.02;1740246;81;21058;-66
2021/04/07 15:06:00;;;;;;;5.17;4.30;;;;;;;5.14;65.72;98841.80;1743695;81;21053;-65
2021/04/07 15:08:28;;;;;;;8.10;5.33;;;;;;;5.12;65.79;98844.67;1742077;80;22281;-65
2021/04/07 15:10:57;;;;;;;6.47;5.67;;;;;;;5.08;65.79;98837.67;1739976;81;21034;-66
2021/04/07 15:13:25;;;;;;;6.28;5.62;;;;;;;5.02;65.94;98839.05;1753796;81;21173;-66